Date,TemperatureHighF,TemperatureAvgF,TemperatureLowF,DewpointHighF,DewpointAvgF,DewpointLowF,HumidityHigh,HumidityAvg,HumidityLow,PressureMaxIn,PressureMinIn,WindSpeedMaxMPH,WindSpeedAvgMPH,GustSpeedMaxMPH,PrecipitationSumIn
2013-1-1,34.0,24.2,14.7,29.0,18.8,9.0,92,80,68,30.02,29.81,9,3,0,0.01
2013-1-2,25.1,18.0,9.2,22.0,12.6,1.0,91,79,68,30.25,29.97,13,3,0,0.00
2013-1-3,29.8,20.3,7.6,28.0,16.2,3.0,92,84,75,30.24,29.99,10,4,0,0.00
2013-1-4,34.4,31.4,28.0,27.0,24.1,21.0,85,75,64,29.99,29.87,15,6,0,0.00
2013-1-5,33.9,31.7,27.6,28.0,26.0,23.0,86,80,75,30.28,30.00,16,3,0,0.02
2013-1-6,38.2,34.5,30.2,34.0,29.8,25.0,93,83,75,30.08,29.88,13,6,0,0.06
2013-1-7,35.1,27.6,20.0,33.0,23.9,17.0,93,86,74,30.39,30.03,11,2,0,0.06
2013-1-8,39.8,31.8,24.3,27.0,23.5,20.0,86,72,56,30.34,30.19,12,3,0,0.00
2013-1-9,47.6,39.6,25.1,36.0,29.8,22.0,89,68,59,30.32,29.95,20,7,0,0.01
2013-1-10,40.0,36.0,30.5,31.0,28.5,26.0,88,74,65,30.57,30.27,11,2,0,0.00
2013-1-11,43.1,38.6,30.9,39.0,31.8,27.0,88,77,59,30.47,29.95,16,6,0,0.10
2013-1-12,51.2,46.5,42.2,47.0,43.8,39.0,94,90,86,30.04,29.99,9,4,0,0.10
2013-1-13,60.2,54.4,44.1,55.0,50.4,43.0,96,86,81,30.00,29.79,21,6,0,0.00
2013-1-14,56.3,39.4,30.5,52.0,33.1,23.0,95,78,67,30.35,29.72,13,3,0,0.03
2013-1-15,34.1,30.5,29.0,25.0,23.6,22.0,84,75,65,30.38,30.20,7,1,0,0.00
2013-1-16,35.1,32.2,29.7,31.0,28.1,24.0,93,84,76,30.20,29.79,16,3,0,0.00
2013-1-17,35.8,27.3,18.6,30.0,20.2,12.0,86,74,64,30.18,29.85,14,4,0,0.00
2013-1-18,29.9,20.1,13.1,19.0,12.8,8.0,89,74,53,30.42,30.11,20,4,0,0.00
2013-1-19,47.6,39.7,29.9,30.0,22.3,16.0,58,50,44,30.11,29.63,20,10,0,0.02
2013-1-20,46.8,33.9,20.4,36.0,20.2,11.0,82,58,45,30.04,29.42,27,10,0,0.03
2013-1-21,21.5,19.4,16.6,18.0,12.1,8.0,87,73,60,30.04,29.86,8,2,0,0.00
2013-1-22,16.4,12.0,8.9,10.0,1.1,-3.0,86,62,52,30.17,29.86,20,7,0,0.00
2013-1-23,9.0,5.7,-0.7,5.0,1.2,-5.0,87,81,71,30.25,30.15,5,1,0,0.01
2013-1-24,13.9,5.5,-4.2,9.0,1.0,-8.0,86,82,75,30.50,30.15,9,2,0,0.00
2013-1-25,16.8,11.9,6.7,9.0,7.6,4.0,89,83,70,30.49,30.11,5,1,0,0.00
2013-1-26,19.7,8.5,-3.5,15.0,3.8,-7.0,91,82,65,30.39,30.11,2,0,0,0.02
2013-1-27,27.6,19.2,11.9,17.0,13.2,9.0,91,78,58,30.57,30.40,3,0,0,0.01
2013-1-28,39.9,32.0,18.7,39.0,28.8,14.0,97,88,76,30.42,29.88,13,2,0,0.12
2013-1-29,53.0,42.3,33.2,51.0,41.2,33.0,99,95,89,30.06,29.81,11,3,0,0.22
2013-1-30,61.6,57.3,52.3,56.0,52.2,49.0,92,83,77,29.79,29.07,32,14,0,0.13
2013-1-31,55.8,33.2,22.5,53.0,25.2,15.0,93,73,55,29.67,28.96,20,11,0,0.45
2013-2-1,22.4,19.8,17.7,18.0,14.9,12.0,91,82,71,30.18,29.67,11,4,0,0.00
2013-2-2,20.1,17.7,14.8,19.0,12.3,8.0,98,79,69,30.19,30.00,16,5,0,0.00
2013-2-3,26.1,19.1,9.1,21.0,14.7,6.0,91,83,66,29.99,29.78,9,2,0,0.01
2013-2-4,23.1,20.2,17.4,15.0,12.1,9.0,85,71,56,29.94,29.83,12,4,0,0.00
2013-2-5,25.4,19.6,11.4,17.0,13.4,8.0,89,77,64,29.99,29.85,5,1,0,0.00
2013-2-6,27.6,22.2,9.5,25.0,14.8,6.0,91,74,50,30.40,29.87,14,3,0,0.00
2013-2-7,32.3,21.0,8.4,20.0,13.1,5.0,88,73,56,30.48,30.18,7,1,0,0.00
2013-2-8,36.1,29.3,20.7,30.0,25.2,18.0,96,85,63,30.17,29.79,15,3,0,0.01
2013-2-9,20.5,17.1,12.3,19.0,14.5,10.0,94,89,83,30.42,29.96,8,2,0,0.01
2013-2-10,37.1,23.0,5.8,25.0,15.8,3.0,93,76,45,30.46,30.05,9,1,0,0.10
2013-2-11,45.3,38.7,34.9,39.0,30.9,18.0,91,74,48,30.05,29.57,19,9,0,0.08
2013-2-12,36.5,33.7,31.4,30.0,27.2,25.0,89,77,67,29.94,29.69,19,7,0,0.08
2013-2-13,38.7,31.8,23.6,26.0,23.9,21.0,89,74,55,29.90,29.71,10,1,0,0.00
2013-2-14,40.2,32.4,21.3,34.0,26.8,19.0,94,81,58,29.94,29.78,11,3,0,0.08
2013-2-15,39.3,36.0,26.9,34.0,26.9,21.0,91,70,61,30.03,29.78,13,4,0,0.09
2013-2-16,29.8,24.5,18.2,20.0,16.0,12.0,87,71,55,30.04,29.91,6,1,0,0.00
2013-2-17,19.6,15.2,12.1,12.0,9.3,6.0,90,78,64,30.13,29.88,14,4,0,0.00
2013-2-18,25.8,19.3,11.5,18.0,13.6,9.0,90,79,64,30.30,30.02,7,1,0,0.03
2013-2-19,39.3,32.2,22.3,35.0,25.5,15.0,92,77,56,30.01,29.57,18,5,0,0.01
2013-2-20,27.1,23.4,20.8,21.0,16.1,12.0,89,74,61,30.01,29.74,18,8,0,0.01
2013-2-21,20.6,17.5,13.8,19.0,14.7,11.0,96,88,76,30.42,29.98,14,4,0,0.00
2013-2-22,36.1,27.8,10.8,27.0,21.7,9.0,94,79,61,30.42,30.07,19,4,0,0.00
2013-2-23,39.2,36.0,33.0,37.0,32.0,27.0,93,85,73,30.07,29.86,12,4,0,0.01
2013-2-24,32.9,31.2,29.9,30.0,27.2,25.0,93,85,74,30.02,29.84,8,2,0,0.02
2013-2-25,38.5,33.7,29.5,31.0,28.6,26.0,93,82,64,30.23,30.02,8,1,0,0.04
2013-2-26,44.1,35.5,24.8,32.0,27.9,23.0,92,75,56,30.25,29.88,16,4,0,0.01
2013-2-27,40.1,35.5,33.0,38.0,34.0,32.0,99,94,87,29.89,29.54,8,2,0,0.22
2013-2-28,40.1,35.7,33.1,36.0,33.3,32.0,97,91,74,29.67,29.54,7,2,0,0.01
2013-3-1,32.9,30.6,26.3,32.0,28.7,24.0,97,92,86,29.89,29.68,7,2,0,0.06
2013-3-2,27.0,24.9,23.1,26.0,22.3,21.0,94,89,84,29.90,29.84,11,2,0,0.00
2013-3-3,25.9,23.3,21.7,21.0,19.3,18.0,90,85,75,29.86,29.82,10,2,0,0.01
2013-3-4,29.1,25.6,22.7,24.0,21.0,19.0,90,83,73,30.01,29.85,13,5,0,0.00
2013-3-5,32.4,27.9,23.0,26.0,23.7,20.0,91,84,76,30.09,29.99,7,1,0,0.01
2013-3-6,42.6,34.4,25.4,33.0,27.9,23.0,91,78,64,30.12,29.97,9,1,0,0.01
2013-3-7,40.0,34.4,28.1,29.0,26.1,23.0,90,72,58,30.23,30.11,10,2,0,0.00
2013-3-8,38.6,31.8,26.1,29.0,26.1,23.0,95,80,59,30.38,30.22,19,2,0,0.00
2013-3-9,48.4,35.2,23.9,34.0,27.7,22.0,98,77,42,30.41,30.27,5,1,0,0.01
2013-3-10,56.6,47.8,29.9,30.0,27.2,24.0,84,47,33,30.26,30.01,18,6,0,0.00
2013-3-11,53.6,51.6,49.2,44.0,32.9,27.0,73,50,40,30.04,29.72,33,10,0,0.00
2013-3-12,54.9,43.2,35.8,49.0,39.2,30.0,95,86,74,29.88,29.69,19,4,0,0.01
2013-3-13,38.8,34.2,26.1,32.0,26.6,18.0,93,74,59,29.90,29.80,13,5,0,0.03
2013-3-14,31.1,25.0,19.0,22.0,14.8,11.0,89,67,46,30.02,29.89,18,7,0,0.01
2013-3-15,36.8,30.4,24.4,32.0,23.2,16.0,92,75,65,30.01,29.68,15,4,0,0.01
2013-3-16,31.1,25.5,18.8,23.0,17.3,13.0,83,71,62,29.97,29.83,7,1,0,0.01
2013-3-17,30.5,24.7,18.5,20.0,15.6,12.0,90,69,54,30.34,29.97,11,2,0,0.01
2013-3-18,36.3,26.1,16.6,28.0,17.1,9.0,93,72,34,30.37,29.86,17,4,0,0.00
2013-3-19,41.3,32.5,27.0,38.0,28.1,19.0,96,84,64,29.85,29.66,14,3,0,0.07
2013-3-20,33.7,28.8,24.3,26.0,20.6,17.0,86,72,50,29.83,29.78,14,6,0,0.01
2013-3-21,31.1,26.9,21.2,24.0,17.8,13.0,91,70,53,29.82,29.70,12,4,0,0.01
2013-3-22,30.9,28.3,25.2,27.0,24.7,22.0,93,86,78,29.87,29.69,13,6,0,0.00
2013-3-23,36.9,32.7,28.8,29.0,26.1,23.0,94,77,61,29.97,29.85,13,4,0,0.02
2013-3-24,41.1,34.0,28.2,29.0,24.4,21.0,86,69,52,29.97,29.73,9,1,0,0.00
2013-3-25,43.4,35.6,30.0,30.0,27.2,24.0,83,72,53,29.73,29.56,7,1,0,0.00
2013-3-26,45.9,36.5,30.6,35.0,29.4,25.0,91,77,49,29.90,29.67,6,1,0,0.00
2013-3-27,46.2,38.3,32.0,34.0,30.4,27.0,93,75,55,30.02,29.88,13,4,0,0.00
2013-3-28,46.2,38.5,33.4,36.0,32.2,28.0,94,80,55,30.17,30.01,9,3,0,0.00
2013-3-29,47.2,39.3,31.0,35.0,32.5,27.0,90,77,56,30.18,30.10,10,2,0,0.00
2013-3-30,53.4,40.9,31.1,31.0,28.1,26.0,84,63,35,30.18,30.07,7,1,0,0.00
2013-3-31,54.4,44.1,35.4,42.0,33.5,24.0,95,69,45,30.06,29.63,22,8,0,0.32
2013-4-1,44.3,37.3,27.7,42.0,30.2,18.0,94,77,49,29.91,29.55,13,5,0,0.44
2013-4-2,33.1,27.0,23.2,27.0,22.5,20.0,92,83,64,30.01,29.90,12,5,0,0.00
2013-4-9,50.1,47.1,45.5,49.7,46.6,45.0,99,98,97,30.00,29.90,3,1,0,0.74
2013-4-10,50.1,41.2,34.3,49.3,38.8,28.3,98,92,70,30.13,29.85,4,2,0,0.76
2013-4-11,43.0,37.1,33.8,40.8,35.6,32.4,97,94,88,30.07,29.63,10,3,0,0.62
2013-4-12,48.3,42.9,39.8,45.4,39.2,35.7,97,87,74,29.82,29.60,7,3,0,0.03
2013-4-13,45.1,38.9,34.9,34.5,31.8,29.5,93,77,57,30.11,29.98,5,3,0,0.09
2013-4-14,63.7,42.5,33.8,46.2,32.5,28.9,85,68,52,30.21,30.11,8,2,0,0.00
2013-4-15,69.4,64.8,56.3,49.0,47.5,45.0,67,54,47,30.11,30.06,17,9,11,0.00
2013-4-16,62.8,55.7,45.5,58.0,49.5,37.0,96,80,67,30.20,29.92,27,10,0,0.19
2013-4-17,56.3,46.0,34.9,39.0,35.4,32.0,92,69,44,30.33,30.20,8,1,0,0.19
2013-4-18,68.6,57.0,39.2,56.0,46.3,35.0,86,69,51,30.24,29.78,32,10,0,0.04
2013-4-19,74.0,60.1,43.0,61.0,52.5,35.0,92,77,64,29.77,29.37,25,11,0,0.26
2013-4-20,44.6,40.2,31.9,36.0,29.5,23.0,87,66,51,30.38,29.72,17,6,0,0.28
2013-4-21,45.4,36.5,29.0,29.0,23.7,20.0,87,62,41,30.66,30.39,9,1,0,0.00
2013-4-22,58.4,46.1,30.4,32.0,27.5,24.0,80,51,28,30.62,30.38,17,4,0,0.00
2013-4-23,61.1,50.4,38.0,42.0,33.2,24.0,74,53,36,30.38,30.00,17,6,0,0.00
2013-4-24,67.8,55.2,42.2,55.0,45.9,36.0,88,72,58,30.00,29.60,22,7,0,0.10
2013-4-25,55.8,46.3,37.8,37.0,32.1,28.0,85,60,36,30.29,29.94,11,4,0,0.01
2013-4-26,54.3,44.8,35.4,40.0,35.2,31.0,95,72,45,30.45,30.30,10,1,0,0.11
2013-4-27,65.8,50.4,33.0,41.0,35.6,30.0,92,61,33,30.44,30.23,5,0,0,0.00
2013-4-28,72.6,60.5,46.8,46.0,39.7,37.0,80,49,28,30.23,30.01,22,5,0,0.05
2013-4-29,60.7,55.8,51.3,52.0,47.7,41.0,90,75,62,30.09,30.01,17,7,0,0.17
2013-4-30,67.3,61.1,54.9,54.0,51.9,50.0,84,72,61,30.21,30.07,14,6,0,0.00
2013-5-1,76.5,64.8,53.0,50.0,41.6,34.0,80,47,25,30.36,30.22,14,3,0,0.00
2013-5-2,62.7,60.6,58.1,38.0,35.5,35.0,43,39,36,30.32,30.31,9,2,0,0.00
2013-5-28,81.4,63.7,57.8,69.2,60.3,55.7,98,89,63,30.07,29.91,10,4,0,0.95
2013-5-29,85.2,72.8,64.5,70.8,66.5,62.4,96,82,61,30.07,29.86,6,2,0,0.61
2013-5-30,88.2,77.6,66.7,70.0,66.3,63.0,91,70,46,30.05,29.96,5,2,0,0.00
2013-5-31,90.9,77.1,64.5,69.6,65.5,62.1,94,71,40,29.96,29.80,9,2,0,0.00
2013-6-1,88.6,75.7,67.7,69.6,66.8,64.6,93,75,52,29.79,29.64,10,4,0,0.15
2013-6-2,80.7,63.0,51.4,67.1,53.6,45.8,85,72,56,29.92,29.65,8,2,0,0.00
2013-6-3,65.1,59.4,49.0,49.5,46.2,41.7,84,62,52,29.97,29.90,3,1,0,0.00
2013-6-4,66.3,57.1,44.9,46.0,41.1,33.0,91,59,29,30.14,29.98,6,1,0,0.00
2013-6-5,70.1,58.2,47.6,50.0,46.0,42.0,86,66,39,30.19,30.05,4,0,0,0.00
2013-6-6,62.1,56.6,54.5,57.0,53.1,47.0,98,89,67,30.06,29.85,9,1,0,0.60
2013-6-7,63.7,59.7,55.2,62.0,59.3,55.0,100,98,95,29.85,29.75,7,0,0,0.66
2013-6-8,62.8,59.1,56.0,61.0,58.1,56.0,100,97,90,30.05,29.74,4,1,0,0.03
2013-6-9,75.4,64.9,55.8,59.0,56.7,54.0,95,77,54,30.16,30.05,5,1,0,0.03
2013-6-10,68.9,63.7,58.6,64.0,60.6,56.0,99,90,69,30.11,29.72,15,2,0,0.44
2013-6-11,66.0,63.1,58.6,65.0,61.6,55.0,100,95,84,29.76,29.59,10,2,0,0.02
2013-6-12,74.4,63.0,54.5,59.0,56.0,53.0,97,80,54,29.89,29.77,7,0,0,0.02
2013-7-5,87.6,80.3,72.9,76.0,73.9,72.0,98,82,65,30.05,30.00,9,2,15,0.78
2013-7-6,86.5,77.1,70.8,72.0,69.9,67.0,98,80,56,30.09,29.97,5,1,0,0.78
2013-7-7,86.9,78.3,70.8,74.0,71.7,70.0,97,81,60,30.00,29.87,7,2,0,0.04
2013-7-8,84.8,74.7,68.2,72.0,69.1,66.0,97,83,64,30.00,29.92,6,2,0,0.15
2013-7-9,84.7,76.0,69.1,73.0,70.4,68.0,97,84,62,30.00,29.86,10,1,0,0.01
2013-7-10,86.0,77.5,70.1,75.0,72.0,68.0,94,83,67,29.86,29.67,17,5,0,0.20
2013-7-11,77.7,70.5,63.1,67.0,63.3,61.0,94,78,62,29.97,29.75,8,1,0,0.20
2013-7-12,77.0,67.5,60.3,65.0,62.1,60.0,99,84,58,30.12,29.97,7,0,0,0.01
2013-7-13,79.3,69.2,61.9,71.0,66.1,61.0,97,90,74,30.21,30.11,7,1,0,0.00
2013-7-14,90.3,78.0,66.5,75.0,70.8,66.0,99,81,56,30.27,30.18,6,1,0,0.00
2013-7-15,90.2,78.9,69.9,74.0,71.3,67.0,97,79,54,30.24,30.16,9,1,0,0.00
2013-7-16,90.1,78.8,69.7,73.0,69.3,66.0,93,75,52,30.21,30.14,8,1,0,0.00
2013-7-17,93.2,80.6,69.4,79.0,73.7,68.0,96,81,56,30.18,30.01,6,1,0,0.20
2013-7-18,90.9,80.4,74.5,77.0,74.1,69.0,95,82,61,30.02,29.89,12,2,0,0.01
2013-7-19,92.4,82.8,70.4,77.0,72.5,67.0,92,72,51,29.89,29.66,16,5,0,0.09
2013-7-20,76.5,71.2,65.3,70.0,67.1,63.0,96,87,76,29.83,29.66,8,2,0,0.02
2013-7-21,76.4,69.3,62.9,65.0,62.3,59.0,97,80,56,29.96,29.84,6,0,0,0.02
2013-7-22,81.3,71.9,61.2,71.0,65.9,60.0,96,82,66,29.95,29.75,6,1,0,0.06
2013-7-23,83.6,74.0,67.6,70.0,68.4,67.0,99,84,61,29.74,29.55,6,1,0,0.38
2013-7-24,71.4,62.7,52.3,67.0,55.8,51.0,94,79,65,30.00,29.60,12,2,0,0.00
2013-7-25,73.7,61.2,48.0,58.0,52.6,47.0,98,76,47,30.10,30.01,7,0,0,0.01
2013-7-26,78.9,66.0,51.5,61.0,57.4,50.0,97,76,52,30.07,29.98,6,0,0,0.01
2013-7-27,79.2,70.4,58.9,68.0,63.3,56.0,93,79,58,29.99,29.82,12,3,0,0.30
2013-7-28,75.7,68.7,61.3,68.0,65.4,60.0,96,89,72,29.95,29.80,10,3,0,0.66
2013-7-29,72.6,63.8,58.1,61.0,58.6,56.0,98,84,58,30.08,29.95,6,1,0,0.67
2013-7-30,75.0,66.5,59.4,62.0,59.5,57.0,94,79,62,30.16,30.09,4,1,0,0.00
2013-7-31,78.0,69.1,58.6,63.0,59.7,57.0,98,74,51,30.12,29.91,8,1,0,0.01
2013-8-1,76.6,69.8,62.0,69.0,64.0,60.0,96,82,68,29.91,29.73,9,4,0,0.05
2013-8-2,75.7,67.2,60.8,63.0,61.4,59.0,96,83,58,29.87,29.80,12,1,0,0.21
2013-8-3,75.6,68.1,61.6,64.0,60.3,56.0,97,78,54,29.88,29.77,10,2,0,0.07
2013-8-4,70.3,63.6,58.8,62.0,57.1,54.0,96,81,62,29.98,29.86,16,2,0,0.15
2013-8-5,74.9,62.6,50.8,58.0,53.8,49.0,96,75,47,30.07,29.99,5,1,0,0.00
2013-8-6,78.8,67.9,57.0,61.0,57.0,53.0,91,70,46,30.04,29.98,10,2,0,0.00
2013-8-7,75.7,70.7,65.8,68.0,64.3,60.0,86,80,75,30.00,29.88,22,8,0,0.00
2013-8-8,85.4,74.5,67.4,74.0,68.9,65.0,97,83,63,29.93,29.86,11,2,0,0.02
2013-8-9,75.9,70.6,65.9,72.0,69.3,63.0,99,95,85,29.87,29.79,4,0,0,0.49
2013-8-10,72.4,65.9,54.3,63.0,57.2,50.0,94,75,49,30.05,29.87,8,2,0,0.00
2013-8-11,75.5,63.9,51.6,61.0,55.6,50.0,96,76,54,30.10,30.00,6,1,0,0.00
2013-8-12,78.6,69.6,59.9,66.0,61.4,58.0,95,77,54,30.02,29.84,5,1,0,0.00
2013-8-13,74.9,66.9,59.5,68.0,62.3,53.0,98,85,72,29.82,29.69,8,2,0,0.02
2013-8-14,68.6,60.4,54.3,58.0,52.7,49.0,94,77,59,30.02,29.78,9,3,0,0.04
2013-8-15,74.1,62.1,52.6,57.0,53.3,50.0,92,75,48,30.11,30.03,8,1,0,0.00
2013-8-16,76.0,65.3,55.9,59.0,54.7,52.0,94,71,45,30.17,30.09,7,1,0,0.00
2013-8-17,79.4,65.2,52.1,62.0,57.0,51.0,98,78,47,30.27,30.18,6,0,0,0.00
2013-8-18,79.2,68.6,58.1,65.0,60.7,57.0,96,78,49,30.22,30.07,8,0,0,0.00
2013-8-19,81.9,71.4,61.3,65.0,61.8,59.0,93,74,50,30.07,29.97,5,1,0,0.00
2013-8-20,83.4,70.5,61.8,66.0,62.5,59.0,95,78,49,30.09,30.01,7,1,0,0.00
2013-8-21,84.5,74.6,63.0,67.0,64.1,61.0,93,71,49,30.13,29.97,8,1,0,0.00
2013-8-22,85.9,73.6,66.3,71.0,67.1,62.0,98,81,58,29.99,29.81,10,2,0,0.57
2013-8-23,73.1,64.7,55.6,68.0,58.9,54.0,99,83,60,30.16,29.91,6,1,0,0.58
2013-8-24,75.5,63.5,49.6,60.0,54.0,49.0,99,74,46,30.32,30.16,7,0,0,0.01
2013-8-25,81.3,68.1,52.1,67.0,58.5,51.0,97,74,49,30.32,30.09,7,1,0,0.01
2013-8-26,75.2,70.4,65.7,70.0,66.2,62.0,98,86,75,30.11,29.87,9,2,0,0.56
2013-8-27,83.9,72.7,64.9,73.0,69.6,65.0,100,91,67,29.90,29.82,3,0,0,0.57
2013-8-28,85.3,74.2,67.6,74.0,70.0,67.0,100,88,58,29.87,29.79,13,1,0,0.00
2013-8-29,82.4,70.8,63.1,73.0,67.2,62.0,100,89,69,29.99,29.87,4,0,0,0.01
2013-8-30,84.2,73.5,62.9,70.0,66.1,62.0,99,80,56,29.97,29.73,7,1,0,0.01
2013-8-31,82.6,73.8,69.3,74.0,70.3,68.0,98,89,73,29.80,29.68,10,1,0,0.08
2013-9-1,83.4,74.0,67.7,71.0,69.2,67.0,99,85,64,29.81,29.69,5,0,0,0.16
2013-9-2,84.0,72.6,67.4,73.0,68.6,65.0,97,88,67,29.74,29.59,11,3,0,0.02
2013-9-3,68.2,64.5,61.4,64.0,58.8,57.0,91,82,69,29.88,29.72,8,2,0,0.02
2013-9-4,78.7,67.4,56.4,61.0,57.4,53.0,91,72,45,29.95,29.88,10,3,0,0.00
2013-9-5,68.1,61.7,48.3,62.0,50.4,43.0,89,68,47,30.17,29.89,10,1,0,0.00
2013-9-6,68.8,56.9,45.2,53.0,47.6,43.0,94,74,47,30.26,30.07,6,1,0,0.00
2013-9-7,67.8,61.5,56.0,60.0,53.9,47.0,95,77,57,30.07,29.84,7,1,0,0.15
2013-9-8,64.1,59.2,47.3,63.0,52.4,44.0,99,80,50,30.09,29.81,13,2,0,0.38
2013-9-9,73.6,60.6,45.8,58.0,50.7,45.0,96,72,48,30.16,29.96,12,4,0,0.01
2013-9-10,87.3,76.0,66.1,77.0,69.6,58.0,96,81,71,30.03,29.89,21,6,0,0.50
2013-9-11,91.5,80.8,73.3,77.0,72.9,67.0,87,77,59,29.99,29.84,14,5,0,0.00
2013-9-12,76.7,70.6,62.5,70.0,66.6,61.0,95,87,74,29.85,29.66,7,2,0,0.01
2013-9-13,62.2,54.7,49.9,61.0,53.4,49.0,97,95,92,29.96,29.66,9,1,0,0.06
2013-9-14,58.7,51.7,44.7,49.0,47.7,43.0,97,87,65,30.12,29.95,6,1,0,0.07
2013-9-15,65.8,56.5,44.6,55.0,49.3,44.0,96,78,53,30.15,30.02,9,1,0,0.00
2013-9-16,57.7,51.4,41.1,54.0,48.7,40.0,96,90,72,30.36,30.04,7,1,0,0.09
2013-9-17,63.1,50.1,34.8,48.0,41.7,34.0,98,76,48,30.49,30.30,6,0,0,0.01
2013-9-18,72.2,57.6,42.5,53.0,46.6,41.0,97,70,38,30.30,30.10,9,1,0,0.01
2013-9-19,76.8,63.8,55.1,57.0,52.0,47.0,82,67,44,30.11,29.99,7,1,0,0.00
2013-9-20,78.8,69.6,59.3,63.0,59.2,53.0,89,71,54,29.99,29.79,14,4,0,0.00
2013-9-21,69.6,64.6,57.4,63.0,59.8,56.0,98,85,70,29.79,29.57,21,7,0,0.71
2013-9-22,57.0,52.8,49.1,56.0,47.6,43.0,96,83,66,29.98,29.65,9,2,0,0.72
2013-9-23,56.6,49.4,40.8,47.0,43.5,39.0,95,81,60,30.11,29.98,8,0,0,0.00
2013-9-24,62.3,49.5,38.2,49.0,43.7,37.0,98,83,55,30.12,29.98,10,1,0,0.00
2013-9-25,68.4,54.5,44.2,55.0,47.6,42.0,95,80,50,29.99,29.91,7,0,0,0.01
2013-9-26,69.0,54.2,43.2,56.0,49.4,42.0,99,85,59,30.11,29.98,4,0,0,0.01
2013-9-27,68.9,56.2,43.6,57.0,50.8,43.0,99,83,60,30.24,30.11,7,0,0,0.01
2013-9-28,71.5,59.3,45.1,57.0,52.1,44.0,99,79,55,30.30,30.18,10,1,0,0.01
2013-9-29,72.0,62.0,54.2,54.0,52.1,50.0,86,71,52,30.17,30.00,14,2,0,0.00
2013-9-30,77.9,64.9,54.1,60.0,55.2,50.0,91,72,49,30.01,29.91,7,0,0,0.00
2013-10-1,75.1,63.9,56.7,62.0,58.2,55.0,96,83,59,29.99,29.89,4,0,0,0.00
2013-10-2,76.7,65.3,54.5,65.0,58.3,50.0,90,78,57,30.03,29.89,10,2,0,0.00
2013-10-3,70.6,61.2,50.0,56.0,52.2,45.0,96,75,41,30.11,30.00,4,0,0,0.01
2013-10-4,68.5,62.0,58.1,67.0,60.6,55.0,99,95,84,30.03,29.96,6,0,0,0.06
2013-10-5,63.3,61.6,59.4,62.0,61.0,59.0,99,98,95,30.07,30.01,2,0,0,0.02
2013-10-6,74.2,65.1,58.3,70.0,63.7,58.0,100,95,83,30.00,29.79,24,3,0,0.64
2013-10-7,73.3,63.7,53.6,66.0,58.5,46.0,97,83,64,29.97,29.59,24,6,0,0.18
2013-10-8,63.3,53.0,46.3,51.0,47.4,45.0,96,83,58,30.34,29.98,6,1,0,0.18
2013-10-9,66.6,52.4,39.1,50.0,45.5,38.0,98,80,49,30.41,30.28,6,0,0,0.00
2013-10-10,63.2,51.5,40.7,50.0,45.8,39.0,96,82,56,30.29,30.15,5,0,0,0.01
2013-10-11,65.2,53.9,45.9,53.0,48.4,44.0,96,83,51,30.14,30.09,5,0,0,0.00
2013-10-12,74.7,57.0,39.8,56.0,48.4,39.0,100,76,47,30.21,30.11,6,0,0,0.01
2013-10-13,69.7,61.5,50.6,57.0,53.5,49.0,95,76,63,30.29,30.21,8,1,0,0.00
2013-10-14,64.1,56.8,51.6,57.0,54.5,51.0,99,92,66,30.29,30.23,7,1,0,0.14
2013-10-15,66.7,59.4,52.3,58.0,54.7,52.0,100,85,66,30.27,29.97,8,1,0,0.01
2013-10-16,64.0,61.5,57.8,57.0,52.3,47.0,94,73,60,29.97,29.76,16,7,0,0.11
2013-10-17,64.0,57.4,51.1,56.0,50.9,48.0,96,80,58,29.86,29.62,11,1,0,0.61
2013-10-18,57.5,53.5,50.5,52.0,45.8,40.0,97,77,54,29.90,29.67,11,2,0,0.72
2013-10-19,61.9,54.9,46.8,50.0,45.2,42.0,94,71,54,29.89,29.63,12,4,0,0.29
2013-10-20,53.6,48.6,43.4,43.0,41.3,39.0,86,76,60,29.99,29.71,9,3,0,0.29
2013-10-21,63.9,55.9,45.2,44.0,41.3,39.0,91,60,43,30.00,29.77,19,6,0,0.00
2013-10-22,57.7,49.2,42.0,49.0,39.5,32.0,95,71,49,29.82,29.71,16,3,0,0.09
2013-10-23,49.6,42.4,37.0,40.0,36.3,32.0,94,80,61,29.81,29.64,4,0,0,0.07
2013-10-24,48.1,40.4,35.0,37.0,33.1,30.0,93,77,51,29.96,29.75,14,4,0,0.14
2013-10-25,48.4,41.4,37.5,40.0,37.2,36.0,95,85,67,30.15,29.97,10,1,0,0.18
2013-10-26,47.3,43.6,41.2,37.0,33.0,29.0,82,67,52,30.12,29.78,27,7,0,0.01
2013-10-27,48.5,43.9,39.2,38.0,35.7,33.0,88,73,58,30.05,29.78,10,3,0,0.00
2013-10-28,51.1,42.9,29.4,41.0,33.8,26.0,89,71,50,30.37,30.03,15,2,0,0.00
2013-10-29,46.1,34.8,23.5,31.0,25.0,22.0,94,70,41,30.47,30.29,5,0,0,0.00
2013-10-30,56.0,45.2,37.9,43.0,38.7,28.0,94,79,61,30.29,30.14,4,0,0,0.03
2013-10-31,61.5,54.6,39.9,59.0,51.6,38.0,95,89,79,30.12,29.47,16,7,0,0.20
2013-11-1,66.7,60.5,51.4,60.0,50.4,42.0,92,71,44,29.65,29.23,24,9,0,0.51
2013-11-2,52.8,47.2,37.2,46.0,43.6,33.0,95,87,71,29.92,29.59,9,1,0,0.14
2013-11-3,37.1,33.0,24.8,33.0,25.8,22.0,89,75,60,30.53,29.93,10,2,0,0.14
2013-11-4,42.9,33.0,21.5,28.0,22.8,19.0,93,69,45,30.66,30.52,9,1,0,0.00
2013-11-5,54.9,46.8,38.0,40.0,31.5,21.0,70,56,48,30.52,30.34,16,7,0,0.00
2013-11-6,60.5,55.3,48.8,51.0,46.2,40.0,80,72,62,30.34,29.81,26,11,0,0.00
2013-11-7,59.1,45.2,37.4,53.0,40.5,32.0,96,83,70,29.93,29.76,20,4,0,0.62
2013-11-8,41.8,37.3,34.6,36.0,31.5,30.0,94,80,66,30.19,29.91,12,3,0,0.01
2013-11-9,47.6,42.2,35.5,34.0,32.1,29.0,91,68,52,30.20,29.77,11,4,0,0.01
2013-11-10,50.4,44.0,37.4,41.0,36.7,33.0,92,76,56,30.08,29.75,16,4,0,0.10
2013-11-11,45.8,40.1,32.2,37.0,33.4,30.0,94,78,58,30.13,29.91,13,3,0,0.02
2013-11-12,31.5,28.6,25.6,30.0,24.7,21.0,94,85,72,30.34,30.04,11,2,0,0.01
2013-11-13,36.2,29.3,18.7,25.0,20.8,14.0,87,71,59,30.41,30.12,10,2,5,0.01
2013-11-14,50.7,41.6,32.8,25.0,21.2,18.0,60,45,31,30.12,30.02,12,4,0,0.01
2013-11-15,55.3,46.6,41.1,31.0,24.2,20.0,61,42,34,30.12,30.05,11,3,0,0.00
2013-11-16,59.4,51.3,43.5,42.0,35.7,25.0,70,56,39,30.25,30.08,12,3,0,0.00
2013-11-17,60.9,55.5,50.6,55.0,50.7,42.0,91,84,70,30.07,29.39,23,12,0,0.03
2013-11-18,60.8,49.1,37.4,56.0,37.9,27.0,87,66,47,29.83,29.35,31,8,0,0.05
2013-11-19,37.6,34.0,29.4,33.0,28.3,21.0,95,80,67,30.43,29.83,10,3,0,0.15
2013-11-20,39.3,30.0,19.5,24.0,20.9,17.0,90,70,48,30.60,30.43,6,0,0,0.01
2013-11-21,44.1,39.1,32.8,37.0,26.2,14.0,82,61,43,30.53,30.28,15,5,0,0.01
2013-11-22,47.4,43.5,36.6,46.0,41.7,32.0,97,93,82,30.27,29.93,12,3,0,0.08
2013-11-23,38.4,29.3,18.4,31.0,24.7,16.0,94,83,51,30.12,29.92,16,5,0,0.08
2013-11-24,22.1,19.2,16.6,19.0,16.8,15.0,93,90,79,30.38,30.08,8,3,0,0.00
2013-11-25,32.8,25.6,15.8,22.0,18.2,14.0,94,76,52,30.40,30.13,17,5,0,0.04
2013-11-26,35.1,33.0,30.8,33.0,28.3,17.0,97,84,55,30.18,29.80,12,3,0,0.36
2013-11-27,34.2,31.7,24.0,34.0,30.3,20.0,98,94,82,29.81,29.55,11,2,0,0.03
2013-11-28,26.5,23.0,20.2,21.0,18.7,14.0,94,84,67,30.43,29.82,9,2,0,0.05
2013-11-29,28.3,21.3,10.2,23.0,16.9,8.0,94,84,62,30.75,30.43,7,0,0,0.01
2013-11-30,32.6,23.6,7.6,23.0,15.3,5.0,92,72,53,30.75,30.25,15,5,0,0.00
2013-12-1,39.1,34.9,31.7,34.0,28.2,23.0,94,77,67,30.24,29.96,13,2,0,0.08
2013-12-2,40.6,36.3,33.0,35.0,33.4,31.0,95,89,79,29.96,29.85,4,0,0,0.13
2013-12-3,41.7,34.3,27.0,33.0,30.0,25.0,95,85,64,30.01,29.89,2,0,0,0.00
2013-12-4,48.9,37.5,28.1,43.0,34.8,26.0,96,90,76,30.07,29.96,2,0,0,0.02
2013-12-5,57.7,51.9,40.4,53.0,47.9,38.0,94,86,79,29.98,29.77,20,8,0,0.11
2013-12-6,40.2,34.3,29.5,38.0,31.0,28.0,96,88,79,30.21,29.96,7,1,0,0.02
2013-12-7,30.8,28.8,26.1,28.0,22.6,17.0,94,78,64,30.52,30.20,8,3,0,0.02
2013-12-8,30.6,26.4,21.5,24.0,17.9,15.0,87,71,62,30.58,30.29,12,2,0,0.01
2013-12-9,41.2,35.4,26.8,37.0,30.7,23.0,92,83,70,30.27,29.84,19,6,0,0.03
2013-12-10,34.9,27.2,21.6,26.0,19.3,11.0,90,72,64,30.04,29.90,9,3,0,0.03
2013-12-11,25.4,22.6,18.6,21.0,15.1,11.0,86,73,64,30.24,30.05,9,5,0,0.00
2013-12-12,20.8,17.7,13.9,14.0,11.8,10.0,91,78,67,30.32,30.05,10,3,0,0.00
2013-12-13,23.6,19.2,12.5,21.0,14.7,8.0,91,82,72,30.41,30.02,11,4,0,0.00
2013-12-14,14.9,11.9,8.4,14.0,8.5,3.0,100,86,71,30.49,29.83,8,2,0,0.00
2013-12-15,26.0,21.4,14.4,23.0,18.9,12.0,94,90,69,29.83,29.63,14,3,0,0.00
2013-12-16,20.9,14.5,0.1,16.0,10.3,-3.0,91,84,66,30.22,29.82,11,2,0,0.00
2013-12-17,27.6,16.1,4.0,24.0,13.5,1.0,94,89,83,30.20,29.94,16,1,0,0.00
2013-12-18,30.9,28.1,20.9,26.0,23.5,19.0,94,83,69,30.07,29.94,9,2,0,0.02
2013-12-19,41.9,35.2,28.7,33.0,26.4,20.0,85,71,61,30.06,29.92,14,4,0,0.10
2013-12-20,49.1,43.3,35.7,46.0,38.8,32.0,93,84,68,30.00,29.77,12,4,0,0.03
2013-12-21,56.9,47.5,32.6,54.0,45.5,32.0,98,93,84,29.84,29.74,18,5,0,0.47
2013-12-22,62.2,38.3,31.9,55.0,37.4,31.0,100,96,76,29.97,29.57,9,1,0,0.02
2013-12-23,40.9,36.5,28.3,40.0,34.6,26.0,98,93,74,30.22,29.95,7,1,0,0.07
2013-12-24,27.7,21.3,14.3,26.0,18.7,11.0,94,89,81,30.45,30.19,6,1,0,0.01
2013-12-25,25.1,15.1,3.3,15.0,10.3,1.0,91,81,63,30.56,30.28,9,1,0,0.00
2013-12-26,31.8,27.0,23.0,28.0,22.1,16.0,92,82,69,30.27,30.07,11,4,0,0.01
2013-12-27,32.4,27.9,23.8,28.0,23.3,16.0,89,83,71,30.29,30.13,11,2,0,0.01
2013-12-28,41.3,34.9,32.4,31.0,28.1,27.0,80,76,68,30.12,30.01,10,4,0,0.02
2013-12-29,45.6,42.5,39.9,38.0,35.6,32.0,93,78,59,29.79,29.67,9,4,0,0.11